sensor_id;sensor_type;location;lat;lon;timestamp;temperature;humidity
20856;DHT22;63058;49.424;8.420;2022-11-20T00:00:35;7.10;99.90
20856;DHT22;63058;49.424;8.420;2022-11-20T00:03:01;7.00;99.90
20856;DHT22;63058;49.424;8.420;2022-11-20T00:05:27;7.00;99.90
20856;DHT22;63058;49.424;8.420;2022-11-20T00:07:52;7.00;99.90
20856;DHT22;63058;49.424;8.420;2022-11-20T00:10:18;7.00;99.90
20856;DHT22;63058;49.424;8.420;2022-11-20T00:12:44;7.00;99.90
20856;DHT22;63058;49.424;8.420;2022-11-20T00:15:09;7.00;99.90
20856;DHT22;63058;49.424;8.420;2022-11-20T00:17:35;7.00;99.90
20856;DHT22;63058;49.424;8.420;2022-11-20T00:20:01;7.10;99.90
20856;DHT22;63058;49.424;8.420;2022-11-20T00:22:26;7.10;99.90
20856;DHT22;63058;49.424;8.420;2022-11-20T00:24:52;7.10;99.90
20856;DHT22;63058;49.424;8.420;2022-11-20T00:27:18;7.20;99.90
20856;DHT22;63058;49.424;8.420;2022-11-20T00:29:43;7.10;99.90
20856;DHT22;63058;49.424;8.420;2022-11-20T00:32:09;7.10;99.90
20856;DHT22;63058;49.424;8.420;2022-11-20T00:34:34;7.10;99.90
20856;DHT22;63058;49.424;8.420;2022-11-20T00:37:00;7.10;99.90
20856;DHT22;63058;49.424;8.420;2022-11-20T00:39:26;7.10;99.90
20856;DHT22;63058;49.424;8.420;2022-11-20T00:41:51;7.10;99.90
20856;DHT22;63058;49.424;8.420;2022-11-20T00:44:17;7.10;99.90
20856;DHT22;63058;49.424;8.420;2022-11-20T00:46:42;7.10;99.90
20856;DHT22;63058;49.424;8.420;2022-11-20T00:49:08;7.10;99.90
20856;DHT22;63058;49.424;8.420;2022-11-20T00:51:34;7.10;99.90
20856;DHT22;63058;49.424;8.420;2022-11-20T00:53:59;7.10;99.90
20856;DHT22;63058;49.424;8.420;2022-11-20T00:56:27;7.10;99.90
20856;DHT22;63058;49.424;8.420;2022-11-20T00:58:53;7.10;99.90
20856;DHT22;63058;49.424;8.420;2022-11-20T01:01:21;7.10;99.90
20856;DHT22;63058;49.424;8.420;2022-11-20T01:03:50;7.10;99.90
20856;DHT22;63058;49.424;8.420;2022-11-20T01:06:25;7.10;99.90
20856;DHT22;63058;49.424;8.420;2022-11-20T01:08:54;7.20;99.90
20856;DHT22;63058;49.424;8.420;2022-11-20T01:11:24;7.20;99.90
20856;DHT22;63058;49.424;8.420;2022-11-20T01:13:51;7.10;99.90
20856;DHT22;63058;49.424;8.420;2022-11-20T01:16:24;7.20;99.90
20856;DHT22;63058;49.424;8.420;2022-11-20T01:18:52;7.10;99.90
20856;DHT22;63058;49.424;8.420;2022-11-20T01:21:22;7.20;99.90
20856;DHT22;63058;49.424;8.420;2022-11-20T01:23:49;7.30;99.90
20856;DHT22;63058;49.424;8.420;2022-11-20T01:26:25;7.20;99.90
20856;DHT22;63058;49.424;8.420;2022-11-20T01:28:51;7.20;99.90
20856;DHT22;63058;49.424;8.420;2022-11-20T01:31:31;7.20;99.90
20856;DHT22;63058;49.424;8.420;2022-11-20T01:33:59;7.20;99.90
20856;DHT22;63058;49.424;8.420;2022-11-20T01:36:29;7.20;99.90
20856;DHT22;63058;49.424;8.420;2022-11-20T01:38:57;7.20;99.90
20856;DHT22;63058;49.424;8.420;2022-11-20T01:41:28;7.20;99.90
20856;DHT22;63058;49.424;8.420;2022-11-20T01:44:14;7.20;99.90
20856;DHT22;63058;49.424;8.420;2022-11-20T01:46:55;7.20;99.90
20856;DHT22;63058;49.424;8.420;2022-11-20T01:49:28;7.20;99.90
20856;DHT22;63058;49.424;8.420;2022-11-20T01:52:03;7.30;99.90
20856;DHT22;63058;49.424;8.420;2022-11-20T01:54:36;7.40;99.90
20856;DHT22;63058;49.424;8.420;2022-11-20T01:57:05;7.40;99.90
20856;DHT22;63058;49.424;8.420;2022-11-20T01:59:34;7.30;99.90
20856;DHT22;63058;49.424;8.420;2022-11-20T02:02:00;7.40;99.90
20856;DHT22;63058;49.424;8.420;2022-11-20T02:04:26;7.50;99.90
20856;DHT22;63058;49.424;8.420;2022-11-20T02:06:59;7.40;99.90
20856;DHT22;63058;49.424;8.420;2022-11-20T02:09:26;7.40;99.90
20856;DHT22;63058;49.424;8.420;2022-11-20T02:11:53;7.50;99.90
20856;DHT22;63058;49.424;8.420;2022-11-20T02:14:19;7.50;99.90
20856;DHT22;63058;49.424;8.420;2022-11-20T02:16:47;7.50;99.90
20856;DHT22;63058;49.424;8.420;2022-11-20T02:19:23;7.40;99.90
20856;DHT22;63058;49.424;8.420;2022-11-20T02:22:05;7.50;99.90
20856;DHT22;63058;49.424;8.420;2022-11-20T02:24:33;7.40;99.90
20856;DHT22;63058;49.424;8.420;2022-11-20T02:27:15;7.50;99.90
20856;DHT22;63058;49.424;8.420;2022-11-20T02:29:50;7.50;99.90
20856;DHT22;63058;49.424;8.420;2022-11-20T02:32:26;7.50;99.90
20856;DHT22;63058;49.424;8.420;2022-11-20T02:34:52;7.50;99.90
20856;DHT22;63058;49.424;8.420;2022-11-20T02:37:18;7.60;99.90
20856;DHT22;63058;49.424;8.420;2022-11-20T02:39:46;7.60;99.90
20856;DHT22;63058;49.424;8.420;2022-11-20T02:42:12;7.60;99.90
20856;DHT22;63058;49.424;8.420;2022-11-20T02:44:38;7.60;99.90
20856;DHT22;63058;49.424;8.420;2022-11-20T02:47:04;7.70;99.90
20856;DHT22;63058;49.424;8.420;2022-11-20T02:49:29;7.70;99.90
20856;DHT22;63058;49.424;8.420;2022-11-20T02:51:55;7.80;99.90
20856;DHT22;63058;49.424;8.420;2022-11-20T02:54:20;7.70;99.90
20856;DHT22;63058;49.424;8.420;2022-11-20T02:56:46;7.70;99.90
20856;DHT22;63058;49.424;8.420;2022-11-20T02:59:12;7.70;99.90
20856;DHT22;63058;49.424;8.420;2022-11-20T03:01:37;7.70;99.90
20856;DHT22;63058;49.424;8.420;2022-11-20T03:04:03;7.70;99.90
20856;DHT22;63058;49.424;8.420;2022-11-20T03:06:28;7.70;99.90
20856;DHT22;63058;49.424;8.420;2022-11-20T03:08:54;7.70;99.90
20856;DHT22;63058;49.424;8.420;2022-11-20T03:11:20;7.80;99.90
20856;DHT22;63058;49.424;8.420;2022-11-20T03:13:46;7.60;99.90
20856;DHT22;63058;49.424;8.420;2022-11-20T03:16:14;7.60;99.90
20856;DHT22;63058;49.424;8.420;2022-11-20T03:18:41;7.60;99.90
20856;DHT22;63058;49.424;8.420;2022-11-20T03:21:07;7.60;99.90
20856;DHT22;63058;49.424;8.420;2022-11-20T03:23:34;7.60;99.90
20856;DHT22;63058;49.424;8.420;2022-11-20T03:26:20;7.60;99.90
20856;DHT22;63058;49.424;8.420;2022-11-20T03:28:48;7.60;99.90
20856;DHT22;63058;49.424;8.420;2022-11-20T03:31:15;7.50;99.90
20856;DHT22;63058;49.424;8.420;2022-11-20T03:33:42;7.50;99.90
20856;DHT22;63058;49.424;8.420;2022-11-20T03:36:09;7.40;99.90
20856;DHT22;63058;49.424;8.420;2022-11-20T03:38:36;7.40;99.90
20856;DHT22;63058;49.424;8.420;2022-11-20T03:41:04;7.30;99.90
20856;DHT22;63058;49.424;8.420;2022-11-20T03:43:30;7.30;99.90
20856;DHT22;63058;49.424;8.420;2022-11-20T03:45:55;7.30;99.90
20856;DHT22;63058;49.424;8.420;2022-11-20T03:48:21;7.30;99.90
20856;DHT22;63058;49.424;8.420;2022-11-20T03:50:47;7.30;99.90
20856;DHT22;63058;49.424;8.420;2022-11-20T03:53:13;7.30;99.90
20856;DHT22;63058;49.424;8.420;2022-11-20T03:55:39;7.30;99.90
20856;DHT22;63058;49.424;8.420;2022-11-20T03:58:04;7.30;99.90
20856;DHT22;63058;49.424;8.420;2022-11-20T04:00:30;7.30;99.90
20856;DHT22;63058;49.424;8.420;2022-11-20T04:02:59;7.40;99.90
20856;DHT22;63058;49.424;8.420;2022-11-20T04:05:25;7.40;99.90
20856;DHT22;63058;49.424;8.420;2022-11-20T04:07:50;7.40;99.90
20856;DHT22;63058;49.424;8.420;2022-11-20T04:10:16;7.50;99.90
20856;DHT22;63058;49.424;8.420;2022-11-20T04:12:42;7.40;99.90
20856;DHT22;63058;49.424;8.420;2022-11-20T04:15:08;7.50;99.90
20856;DHT22;63058;49.424;8.420;2022-11-20T04:17:34;7.50;99.90
20856;DHT22;63058;49.424;8.420;2022-11-20T04:19:59;7.50;99.90
20856;DHT22;63058;49.424;8.420;2022-11-20T04:22:25;7.50;99.90
20856;DHT22;63058;49.424;8.420;2022-11-20T04:24:50;7.50;99.90
20856;DHT22;63058;49.424;8.420;2022-11-20T04:27:17;7.50;99.90
20856;DHT22;63058;49.424;8.420;2022-11-20T04:29:43;7.50;99.90
20856;DHT22;63058;49.424;8.420;2022-11-20T04:32:08;7.50;99.90
20856;DHT22;63058;49.424;8.420;2022-11-20T04:34:34;7.50;99.90
20856;DHT22;63058;49.424;8.420;2022-11-20T04:37:00;7.60;99.90
20856;DHT22;63058;49.424;8.420;2022-11-20T04:39:26;7.50;99.90
20856;DHT22;63058;49.424;8.420;2022-11-20T04:41:51;7.50;99.90
20856;DHT22;63058;49.424;8.420;2022-11-20T04:44:40;7.50;99.90
20856;DHT22;63058;49.424;8.420;2022-11-20T04:47:06;7.50;99.90
20856;DHT22;63058;49.424;8.420;2022-11-20T04:49:31;7.50;99.90
20856;DHT22;63058;49.424;8.420;2022-11-20T04:51:57;7.40;99.90
20856;DHT22;63058;49.424;8.420;2022-11-20T04:54:23;7.40;99.90
20856;DHT22;63058;49.424;8.420;2022-11-20T04:56:49;7.40;99.90
20856;DHT22;63058;49.424;8.420;2022-11-20T04:59:15;7.40;99.90
20856;DHT22;63058;49.424;8.420;2022-11-20T05:01:41;7.40;99.90
20856;DHT22;63058;49.424;8.420;2022-11-20T05:04:07;7.40;99.90
20856;DHT22;63058;49.424;8.420;2022-11-20T05:06:32;7.40;99.90
20856;DHT22;63058;49.424;8.420;2022-11-20T05:08:58;7.40;99.90
20856;DHT22;63058;49.424;8.420;2022-11-20T05:11:24;7.50;99.90
20856;DHT22;63058;49.424;8.420;2022-11-20T05:13:51;7.50;99.90
20856;DHT22;63058;49.424;8.420;2022-11-20T05:16:19;7.50;99.90
20856;DHT22;63058;49.424;8.420;2022-11-20T05:18:45;7.60;99.90
20856;DHT22;63058;49.424;8.420;2022-11-20T05:21:12;7.60;99.90
20856;DHT22;63058;49.424;8.420;2022-11-20T05:23:38;7.60;99.90
20856;DHT22;63058;49.424;8.420;2022-11-20T05:26:05;7.70;99.90
20856;DHT22;63058;49.424;8.420;2022-11-20T05:28:32;7.70;99.90
20856;DHT22;63058;49.424;8.420;2022-11-20T05:31:13;7.70;99.90
20856;DHT22;63058;49.424;8.420;2022-11-20T05:33:43;7.70;99.90
20856;DHT22;63058;49.424;8.420;2022-11-20T05:36:10;7.70;99.90
20856;DHT22;63058;49.424;8.420;2022-11-20T05:38:37;7.70;99.90
20856;DHT22;63058;49.424;8.420;2022-11-20T05:41:07;7.60;99.90
20856;DHT22;63058;49.424;8.420;2022-11-20T05:43:34;7.60;99.90
20856;DHT22;63058;49.424;8.420;2022-11-20T05:46:01;7.50;99.90
20856;DHT22;63058;49.424;8.420;2022-11-20T05:48:26;7.60;99.90
20856;DHT22;63058;49.424;8.420;2022-11-20T05:50:52;7.60;99.90
20856;DHT22;63058;49.424;8.420;2022-11-20T05:53:17;7.50;99.90
20856;DHT22;63058;49.424;8.420;2022-11-20T05:55:43;7.60;99.90
20856;DHT22;63058;49.424;8.420;2022-11-20T05:58:09;7.60;99.90
20856;DHT22;63058;49.424;8.420;2022-11-20T06:00:34;7.60;99.90
20856;DHT22;63058;49.424;8.420;2022-11-20T06:03:01;7.60;99.90
20856;DHT22;63058;49.424;8.420;2022-11-20T06:05:26;7.60;99.90
20856;DHT22;63058;49.424;8.420;2022-11-20T06:07:52;7.60;99.90
20856;DHT22;63058;49.424;8.420;2022-11-20T06:10:17;7.60;99.90
20856;DHT22;63058;49.424;8.420;2022-11-20T06:12:43;7.60;99.90
20856;DHT22;63058;49.424;8.420;2022-11-20T06:15:09;7.60;99.90
20856;DHT22;63058;49.424;8.420;2022-11-20T06:17:35;7.70;99.90
20856;DHT22;63058;49.424;8.420;2022-11-20T06:20:00;7.60;99.90
20856;DHT22;63058;49.424;8.420;2022-11-20T06:22:26;7.60;99.90
20856;DHT22;63058;49.424;8.420;2022-11-20T06:24:51;7.70;99.90
20856;DHT22;63058;49.424;8.420;2022-11-20T06:27:17;7.70;99.90
20856;DHT22;63058;49.424;8.420;2022-11-20T06:29:43;7.70;99.90
20856;DHT22;63058;49.424;8.420;2022-11-20T06:32:08;7.70;99.90
20856;DHT22;63058;49.424;8.420;2022-11-20T06:34:34;7.70;99.90
20856;DHT22;63058;49.424;8.420;2022-11-20T06:36:59;7.60;99.90
20856;DHT22;63058;49.424;8.420;2022-11-20T06:39:25;7.60;99.90
20856;DHT22;63058;49.424;8.420;2022-11-20T06:41:50;7.60;99.90
20856;DHT22;63058;49.424;8.420;2022-11-20T06:44:16;7.60;99.90
20856;DHT22;63058;49.424;8.420;2022-11-20T06:46:41;7.60;99.90
20856;DHT22;63058;49.424;8.420;2022-11-20T06:49:07;7.60;99.90
20856;DHT22;63058;49.424;8.420;2022-11-20T06:51:32;7.60;99.90
20856;DHT22;63058;49.424;8.420;2022-11-20T06:53:58;7.70;99.90
20856;DHT22;63058;49.424;8.420;2022-11-20T06:56:24;7.60;99.90
20856;DHT22;63058;49.424;8.420;2022-11-20T06:58:49;7.60;99.90
20856;DHT22;63058;49.424;8.420;2022-11-20T07:01:15;7.60;99.90
20856;DHT22;63058;49.424;8.420;2022-11-20T07:03:41;7.60;99.90
20856;DHT22;63058;49.424;8.420;2022-11-20T07:06:07;7.60;99.90
20856;DHT22;63058;49.424;8.420;2022-11-20T07:08:34;7.60;99.90
20856;DHT22;63058;49.424;8.420;2022-11-20T07:11:01;7.60;99.90
20856;DHT22;63058;49.424;8.420;2022-11-20T07:13:28;7.60;99.90
20856;DHT22;63058;49.424;8.420;2022-11-20T07:15:54;7.70;99.90
20856;DHT22;63058;49.424;8.420;2022-11-20T07:18:20;7.70;99.90
20856;DHT22;63058;49.424;8.420;2022-11-20T07:20:46;7.70;99.90
20856;DHT22;63058;49.424;8.420;2022-11-20T07:23:11;7.80;99.90
20856;DHT22;63058;49.424;8.420;2022-11-20T07:25:37;7.80;99.90
20856;DHT22;63058;49.424;8.420;2022-11-20T07:28:02;7.80;99.90
20856;DHT22;63058;49.424;8.420;2022-11-20T07:30:29;7.80;99.90
20856;DHT22;63058;49.424;8.420;2022-11-20T07:32:56;7.80;99.90
20856;DHT22;63058;49.424;8.420;2022-11-20T07:35:23;7.80;99.90
20856;DHT22;63058;49.424;8.420;2022-11-20T07:37:48;7.90;99.90
20856;DHT22;63058;49.424;8.420;2022-11-20T07:40:15;7.90;99.90
20856;DHT22;63058;49.424;8.420;2022-11-20T07:42:52;7.80;99.90
20856;DHT22;63058;49.424;8.420;2022-11-20T07:45:19;7.80;99.90
20856;DHT22;63058;49.424;8.420;2022-11-20T07:47:44;7.80;99.90
20856;DHT22;63058;49.424;8.420;2022-11-20T07:50:11;7.80;99.90
20856;DHT22;63058;49.424;8.420;2022-11-20T07:52:36;7.90;99.90
20856;DHT22;63058;49.424;8.420;2022-11-20T07:55:02;7.90;99.90
20856;DHT22;63058;49.424;8.420;2022-11-20T07:57:27;7.90;99.90
20856;DHT22;63058;49.424;8.420;2022-11-20T07:59:53;8.00;99.90
20856;DHT22;63058;49.424;8.420;2022-11-20T08:02:18;7.90;99.90
20856;DHT22;63058;49.424;8.420;2022-11-20T08:04:44;8.00;99.90
20856;DHT22;63058;49.424;8.420;2022-11-20T08:07:09;8.00;99.90
20856;DHT22;63058;49.424;8.420;2022-11-20T08:09:35;8.00;99.90
20856;DHT22;63058;49.424;8.420;2022-11-20T08:12:01;8.10;99.90
20856;DHT22;63058;49.424;8.420;2022-11-20T08:14:45;8.20;99.90
20856;DHT22;63058;49.424;8.420;2022-11-20T08:17:10;8.30;99.90
20856;DHT22;63058;49.424;8.420;2022-11-20T08:19:36;8.30;99.90
20856;DHT22;63058;49.424;8.420;2022-11-20T08:22:02;8.40;99.90
20856;DHT22;63058;49.424;8.420;2022-11-20T08:24:27;8.50;99.90
20856;DHT22;63058;49.424;8.420;2022-11-20T08:26:53;8.50;99.90
20856;DHT22;63058;49.424;8.420;2022-11-20T08:29:18;8.60;99.90
20856;DHT22;63058;49.424;8.420;2022-11-20T08:31:44;8.60;99.90
20856;DHT22;63058;49.424;8.420;2022-11-20T08:34:09;8.60;99.90
20856;DHT22;63058;49.424;8.420;2022-11-20T08:36:36;8.70;99.90
20856;DHT22;63058;49.424;8.420;2022-11-20T08:39:02;8.70;99.90
20856;DHT22;63058;49.424;8.420;2022-11-20T08:41:29;8.70;99.90
20856;DHT22;63058;49.424;8.420;2022-11-20T08:44:04;8.60;99.90
20856;DHT22;63058;49.424;8.420;2022-11-20T08:46:41;8.60;99.90
20856;DHT22;63058;49.424;8.420;2022-11-20T08:49:15;8.60;99.90
20856;DHT22;63058;49.424;8.420;2022-11-20T08:51:42;8.60;99.90
20856;DHT22;63058;49.424;8.420;2022-11-20T08:54:07;8.60;99.90
20856;DHT22;63058;49.424;8.420;2022-11-20T08:56:34;8.60;99.90
20856;DHT22;63058;49.424;8.420;2022-11-20T08:58:59;8.60;99.90
20856;DHT22;63058;49.424;8.420;2022-11-20T09:01:25;8.60;99.90
20856;DHT22;63058;49.424;8.420;2022-11-20T09:03:51;8.60;99.90
20856;DHT22;63058;49.424;8.420;2022-11-20T09:06:17;8.60;99.90
20856;DHT22;63058;49.424;8.420;2022-11-20T09:08:43;8.70;99.90
20856;DHT22;63058;49.424;8.420;2022-11-20T09:11:08;8.60;99.90
20856;DHT22;63058;49.424;8.420;2022-11-20T09:13:35;8.70;99.90
20856;DHT22;63058;49.424;8.420;2022-11-20T09:16:04;8.70;99.90
20856;DHT22;63058;49.424;8.420;2022-11-20T09:18:31;8.70;99.90
20856;DHT22;63058;49.424;8.420;2022-11-20T09:21:04;8.80;99.90
20856;DHT22;63058;49.424;8.420;2022-11-20T09:23:34;8.80;99.90
20856;DHT22;63058;49.424;8.420;2022-11-20T09:26:04;8.80;99.90
20856;DHT22;63058;49.424;8.420;2022-11-20T09:28:30;8.80;99.90
20856;DHT22;63058;49.424;8.420;2022-11-20T09:30:56;8.80;99.90
20856;DHT22;63058;49.424;8.420;2022-11-20T09:33:24;8.90;99.90
20856;DHT22;63058;49.424;8.420;2022-11-20T09:35:50;8.90;99.90
20856;DHT22;63058;49.424;8.420;2022-11-20T09:38:15;8.90;99.90
20856;DHT22;63058;49.424;8.420;2022-11-20T09:41:00;8.90;99.90
20856;DHT22;63058;49.424;8.420;2022-11-20T09:46:21;8.90;99.90
20856;DHT22;63058;49.424;8.420;2022-11-20T09:51:43;8.90;99.90
20856;DHT22;63058;49.424;8.420;2022-11-20T09:54:19;8.90;99.90
20856;DHT22;63058;49.424;8.420;2022-11-20T09:57:11;8.90;99.90
20856;DHT22;63058;49.424;8.420;2022-11-20T09:59:59;8.90;99.90
20856;DHT22;63058;49.424;8.420;2022-11-20T10:05:41;9.00;99.90
20856;DHT22;63058;49.424;8.420;2022-11-20T10:08:25;9.00;99.90
20856;DHT22;63058;49.424;8.420;2022-11-20T10:11:05;9.00;99.90
20856;DHT22;63058;49.424;8.420;2022-11-20T10:19:10;9.20;99.90
20856;DHT22;63058;49.424;8.420;2022-11-20T10:24:44;9.20;99.90
20856;DHT22;63058;49.424;8.420;2022-11-20T10:30:08;9.30;99.90
20856;DHT22;63058;49.424;8.420;2022-11-20T10:32:39;9.30;99.90
20856;DHT22;63058;49.424;8.420;2022-11-20T10:38:00;9.40;99.90
20856;DHT22;63058;49.424;8.420;2022-11-20T10:40:39;9.40;99.90
20856;DHT22;63058;49.424;8.420;2022-11-20T10:43:24;9.50;99.90
20856;DHT22;63058;49.424;8.420;2022-11-20T10:46:03;9.40;99.90
20856;DHT22;63058;49.424;8.420;2022-11-20T10:48:31;9.50;99.90
20856;DHT22;63058;49.424;8.420;2022-11-20T10:56:53;9.40;99.90
20856;DHT22;63058;49.424;8.420;2022-11-20T11:02:16;9.30;99.90
20856;DHT22;63058;49.424;8.420;2022-11-20T11:04:50;9.30;99.90
20856;DHT22;63058;49.424;8.420;2022-11-20T11:07:30;9.40;99.90
20856;DHT22;63058;49.424;8.420;2022-11-20T11:09:59;9.50;99.90
20856;DHT22;63058;49.424;8.420;2022-11-20T11:12:25;9.60;99.90
20856;DHT22;63058;49.424;8.420;2022-11-20T11:14:54;9.80;99.90
20856;DHT22;63058;49.424;8.420;2022-11-20T11:22:45;10.30;99.90
20856;DHT22;63058;49.424;8.420;2022-11-20T11:25:32;10.40;99.90
20856;DHT22;63058;49.424;8.420;2022-11-20T11:28:17;10.50;99.90
20856;DHT22;63058;49.424;8.420;2022-11-20T11:30:45;10.60;99.90
20856;DHT22;63058;49.424;8.420;2022-11-20T11:33:18;10.70;99.90
20856;DHT22;63058;49.424;8.420;2022-11-20T11:35:49;11.00;99.90
20856;DHT22;63058;49.424;8.420;2022-11-20T11:38:22;11.40;99.90
20856;DHT22;63058;49.424;8.420;2022-11-20T11:40:49;12.00;99.90
20856;DHT22;63058;49.424;8.420;2022-11-20T11:43:22;12.60;99.90
20856;DHT22;63058;49.424;8.420;2022-11-20T11:52:03;14.20;99.90
20856;DHT22;63058;49.424;8.420;2022-11-20T11:55:01;14.80;99.90
20856;DHT22;63058;49.424;8.420;2022-11-20T11:57:40;15.50;99.90
20856;DHT22;63058;49.424;8.420;2022-11-20T12:00:12;16.00;99.90
20856;DHT22;63058;49.424;8.420;2022-11-20T12:08:03;16.90;99.90
20856;DHT22;63058;49.424;8.420;2022-11-20T12:10:46;17.20;99.90
20856;DHT22;63058;49.424;8.420;2022-11-20T12:13:32;17.40;99.90
20856;DHT22;63058;49.424;8.420;2022-11-20T12:16:04;17.60;99.90
20856;DHT22;63058;49.424;8.420;2022-11-20T12:18:30;17.70;99.90
20856;DHT22;63058;49.424;8.420;2022-11-20T12:23:46;17.60;99.90
20856;DHT22;63058;49.424;8.420;2022-11-20T12:26:39;17.60;99.90
20856;DHT22;63058;49.424;8.420;2022-11-20T12:29:32;17.50;99.90
20856;DHT22;63058;49.424;8.420;2022-11-20T12:35:18;16.90;99.90
20856;DHT22;63058;49.424;8.420;2022-11-20T12:44:19;15.60;98.90
20856;DHT22;63058;49.424;8.420;2022-11-20T12:47:36;15.10;99.70
20856;DHT22;63058;49.424;8.420;2022-11-20T12:50:15;14.80;99.90
20856;DHT22;63058;49.424;8.420;2022-11-20T12:53:10;14.50;99.90
20856;DHT22;63058;49.424;8.420;2022-11-20T12:58:27;14.00;99.90
20856;DHT22;63058;49.424;8.420;2022-11-20T13:01:41;13.70;99.90
20856;DHT22;63058;49.424;8.420;2022-11-20T13:04:36;13.50;99.90
20856;DHT22;63058;49.424;8.420;2022-11-20T13:07:12;13.40;99.90
20856;DHT22;63058;49.424;8.420;2022-11-20T13:09:48;13.30;99.90
20856;DHT22;63058;49.424;8.420;2022-11-20T13:12:41;13.20;99.90
20856;DHT22;63058;49.424;8.420;2022-11-20T13:17:59;13.00;99.90
20856;DHT22;63058;49.424;8.420;2022-11-20T13:20:26;13.10;99.90
20856;DHT22;63058;49.424;8.420;2022-11-20T13:22:54;13.10;99.90
20856;DHT22;63058;49.424;8.420;2022-11-20T13:25:33;13.10;99.90
20856;DHT22;63058;49.424;8.420;2022-11-20T13:28:46;13.20;99.90
20856;DHT22;63058;49.424;8.420;2022-11-20T13:30:52;13.30;99.90
20856;DHT22;63058;49.424;8.420;2022-11-20T13:36:26;13.30;99.90
20856;DHT22;63058;49.424;8.420;2022-11-20T13:38:54;13.40;99.90
20856;DHT22;63058;49.424;8.420;2022-11-20T13:41:38;13.50;99.90
20856;DHT22;63058;49.424;8.420;2022-11-20T13:44:14;13.50;99.90
20856;DHT22;63058;49.424;8.420;2022-11-20T13:46:45;13.60;99.90
20856;DHT22;63058;49.424;8.420;2022-11-20T13:49:38;13.60;99.90
20856;DHT22;63058;49.424;8.420;2022-11-20T13:52:20;13.70;99.90
20856;DHT22;63058;49.424;8.420;2022-11-20T13:57:44;13.80;99.90
20856;DHT22;63058;49.424;8.420;2022-11-20T14:00:21;13.90;99.90
20856;DHT22;63058;49.424;8.420;2022-11-20T14:05:39;13.80;99.90
20856;DHT22;63058;49.424;8.420;2022-11-20T14:08:13;13.80;99.90
20856;DHT22;63058;49.424;8.420;2022-11-20T14:10:39;13.70;99.90
20856;DHT22;63058;49.424;8.420;2022-11-20T14:13:17;13.50;99.90
20856;DHT22;63058;49.424;8.420;2022-11-20T14:15:43;13.40;99.90
20856;DHT22;63058;49.424;8.420;2022-11-20T14:18:20;13.30;99.90
20856;DHT22;63058;49.424;8.420;2022-11-20T14:20:47;13.20;99.90
20856;DHT22;63058;49.424;8.420;2022-11-20T14:23:23;13.10;99.90
20856;DHT22;63058;49.424;8.420;2022-11-20T14:25:50;12.90;99.90
20856;DHT22;63058;49.424;8.420;2022-11-20T14:28:26;12.90;99.90
20856;DHT22;63058;49.424;8.420;2022-11-20T14:30:52;12.80;99.90
20856;DHT22;63058;49.424;8.420;2022-11-20T14:33:19;12.70;99.90
20856;DHT22;63058;49.424;8.420;2022-11-20T14:35:53;12.60;99.90
20856;DHT22;63058;49.424;8.420;2022-11-20T14:38:24;12.50;99.90
20856;DHT22;63058;49.424;8.420;2022-11-20T14:40:50;12.40;99.90
20856;DHT22;63058;49.424;8.420;2022-11-20T14:43:25;12.40;99.90
20856;DHT22;63058;49.424;8.420;2022-11-20T14:46:06;12.30;99.90
20856;DHT22;63058;49.424;8.420;2022-11-20T14:51:04;12.10;99.90
20856;DHT22;63058;49.424;8.420;2022-11-20T14:53:29;12.00;99.90
20856;DHT22;63058;49.424;8.420;2022-11-20T14:56:00;12.00;99.90
20856;DHT22;63058;49.424;8.420;2022-11-20T14:58:29;11.90;99.90
20856;DHT22;63058;49.424;8.420;2022-11-20T15:01:07;11.90;99.90
20856;DHT22;63058;49.424;8.420;2022-11-20T15:03:40;11.80;99.90
20856;DHT22;63058;49.424;8.420;2022-11-20T15:06:09;11.80;99.90
20856;DHT22;63058;49.424;8.420;2022-11-20T15:08:36;11.70;99.90
20856;DHT22;63058;49.424;8.420;2022-11-20T15:11:02;11.60;99.90
20856;DHT22;63058;49.424;8.420;2022-11-20T15:13:33;11.60;99.90
20856;DHT22;63058;49.424;8.420;2022-11-20T15:16:01;11.60;99.90
20856;DHT22;63058;49.424;8.420;2022-11-20T15:18:32;11.60;99.90
20856;DHT22;63058;49.424;8.420;2022-11-20T15:21:03;11.50;99.90
20856;DHT22;63058;49.424;8.420;2022-11-20T15:23:29;11.50;99.90
20856;DHT22;63058;49.424;8.420;2022-11-20T15:25:55;11.40;99.90
20856;DHT22;63058;49.424;8.420;2022-11-20T15:28:31;11.40;99.90
20856;DHT22;63058;49.424;8.420;2022-11-20T15:30:57;11.30;99.90
20856;DHT22;63058;49.424;8.420;2022-11-20T15:33:22;11.30;99.90
20856;DHT22;63058;49.424;8.420;2022-11-20T15:35:48;11.30;99.90
20856;DHT22;63058;49.424;8.420;2022-11-20T15:38:14;11.30;99.90
20856;DHT22;63058;49.424;8.420;2022-11-20T15:40:39;11.30;99.90
20856;DHT22;63058;49.424;8.420;2022-11-20T15:43:05;11.20;99.90
20856;DHT22;63058;49.424;8.420;2022-11-20T15:45:41;11.20;99.90
20856;DHT22;63058;49.424;8.420;2022-11-20T15:48:14;11.10;99.90
20856;DHT22;63058;49.424;8.420;2022-11-20T15:51:38;11.10;99.90
20856;DHT22;63058;49.424;8.420;2022-11-20T15:53:39;11.00;99.90
20856;DHT22;63058;49.424;8.420;2022-11-20T15:56:07;11.00;99.90
20856;DHT22;63058;49.424;8.420;2022-11-20T15:58:34;10.90;99.90
20856;DHT22;63058;49.424;8.420;2022-11-20T16:01:00;10.80;99.90
20856;DHT22;63058;49.424;8.420;2022-11-20T16:03:25;10.90;99.90
20856;DHT22;63058;49.424;8.420;2022-11-20T16:05:51;10.90;99.90
20856;DHT22;63058;49.424;8.420;2022-11-20T16:08:18;10.80;99.90
20856;DHT22;63058;49.424;8.420;2022-11-20T16:10:44;10.80;99.90
20856;DHT22;63058;49.424;8.420;2022-11-20T16:13:15;10.80;99.90
20856;DHT22;63058;49.424;8.420;2022-11-20T16:16:05;10.70;99.90
20856;DHT22;63058;49.424;8.420;2022-11-20T16:18:32;10.70;99.90
20856;DHT22;63058;49.424;8.420;2022-11-20T16:20:59;10.70;99.90
20856;DHT22;63058;49.424;8.420;2022-11-20T16:23:25;10.70;99.90
20856;DHT22;63058;49.424;8.420;2022-11-20T16:26:09;10.70;99.90
20856;DHT22;63058;49.424;8.420;2022-11-20T16:28:35;10.80;99.90
20856;DHT22;63058;49.424;8.420;2022-11-20T16:31:13;10.80;99.90
20856;DHT22;63058;49.424;8.420;2022-11-20T16:33:39;10.70;99.90
20856;DHT22;63058;49.424;8.420;2022-11-20T16:36:12;10.70;99.90
20856;DHT22;63058;49.424;8.420;2022-11-20T16:38:39;10.60;99.90
20856;DHT22;63058;49.424;8.420;2022-11-20T16:41:05;10.70;99.90
20856;DHT22;63058;49.424;8.420;2022-11-20T16:46:09;10.70;99.90
20856;DHT22;63058;49.424;8.420;2022-11-20T16:48:35;10.70;99.90
20856;DHT22;63058;49.424;8.420;2022-11-20T16:51:01;10.80;99.90
20856;DHT22;63058;49.424;8.420;2022-11-20T16:53:26;10.80;99.90
20856;DHT22;63058;49.424;8.420;2022-11-20T16:55:52;10.70;99.90
20856;DHT22;63058;49.424;8.420;2022-11-20T16:58:17;10.70;99.90
20856;DHT22;63058;49.424;8.420;2022-11-20T17:00:43;10.70;99.90
20856;DHT22;63058;49.424;8.420;2022-11-20T17:03:09;10.70;99.90
20856;DHT22;63058;49.424;8.420;2022-11-20T17:05:35;10.80;99.90
20856;DHT22;63058;49.424;8.420;2022-11-20T17:08:02;10.80;99.90
20856;DHT22;63058;49.424;8.420;2022-11-20T17:10:28;10.80;99.90
20856;DHT22;63058;49.424;8.420;2022-11-20T17:12:53;10.70;99.90
20856;DHT22;63058;49.424;8.420;2022-11-20T17:15:19;10.70;99.90